Time;durP1;ratioP1;P1;durP2;ratioP2;P2;SDS_P1;SDS_P2;PMS_P1;PMS_P2;Temp;Humidity;BMP_temperature;BMP_pressure;BME280_temperature;BME280_humidity;BME280_pressure;Samples;Min_cycle;Max_cycle;Signal;HPM_P1;HPM_P2
2022/08/29 00:01:59;;;;;;;10.10;3.40;;;;;;;13.44;75.39;101313.30;108444;1274;73170;-87
2022/08/29 00:04:27;;;;;;;8.10;3.50;;;;;;;13.46;75.11;101307.96;108385;1274;62417;-88
2022/08/29 00:06:57;;;;;;;8.90;3.30;;;;;;;13.47;75.16;101310.34;108442;1274;60982;-88
2022/08/29 00:09:25;;;;;;;12.90;3.60;;;;;;;13.47;75.10;101306.09;108390;1274;74961;-88
2022/08/29 00:11:52;;;;;;;7.90;3.20;;;;;;;13.45;75.16;101309.80;108420;1274;72068;-88
2022/08/29 00:14:19;;;;;;;7.60;3.20;;;;;;;13.42;75.50;101307.85;108430;1272;72587;-87
2022/08/29 00:16:50;;;;;;;10.30;3.20;;;;;;;13.38;75.71;101311.19;108507;1273;62110;-87
2022/08/29 00:19:17;;;;;;;9.40;3.10;;;;;;;13.36;75.68;101313.29;108391;1274;60509;-87
2022/08/29 00:21:44;;;;;;;7.60;3.50;;;;;;;13.32;75.65;101308.56;108447;1272;74890;-88
2022/08/29 00:24:11;;;;;;;8.30;3.30;;;;;;;13.30;75.69;101309.27;108468;1274;71202;-88
2022/08/29 00:26:39;;;;;;;7.20;3.40;;;;;;;13.29;75.39;101312.66;108387;1273;74027;-88
2022/08/29 00:29:06;;;;;;;10.10;3.30;;;;;;;13.25;75.69;101309.69;108429;1271;62360;-88
2022/08/29 00:31:34;;;;;;;9.00;3.50;;;;;;;13.21;75.68;101315.94;107013;1274;60622;-87
2022/08/29 00:34:00;;;;;;;9.10;3.30;;;;;;;13.19;75.58;101316.75;107175;1274;76594;-88
2022/08/29 00:36:31;;;;;;;12.60;3.60;;;;;;;13.16;75.70;101310.84;107351;1274;71529;-88
2022/08/29 00:38:58;;;;;;;10.80;3.40;;;;;;;13.12;76.23;101308.17;107117;1274;72808;-87
2022/08/29 00:44:04;;;;;;;9.20;3.50;;;;;;;13.01;76.96;101307.40;107308;1264;59288;-87
2022/08/29 00:46:40;;;;;;;7.30;3.30;;;;;;;12.97;77.28;101306.67;107297;1274;76012;-88
2022/08/29 00:49:37;;;;;;;7.40;3.30;;;;;;;12.95;77.00;101303.39;107620;1271;71468;-89
2022/08/29 00:52:12;;;;;;;7.30;3.00;;;;;;;12.92;77.15;101302.47;107578;1273;72957;-87
2022/08/29 00:54:40;;;;;;;8.20;2.90;;;;;;;12.89;77.08;101307.05;107629;1270;62214;-88
2022/08/29 00:57:07;;;;;;;8.50;3.40;;;;;;;12.86;77.09;101301.01;107727;1271;61725;-88
2022/08/29 00:59:39;;;;;;;8.70;2.90;;;;;;;12.83;77.32;101303.79;107413;1273;76040;-87
2022/08/29 01:02:09;;;;;;;8.70;3.80;;;;;;;12.80;77.68;101303.87;107769;1271;71964;-87
2022/08/29 01:04:38;;;;;;;8.70;3.50;;;;;;;12.75;77.78;101303.14;107316;1274;73166;-87
2022/08/29 01:07:07;;;;;;;8.60;3.00;;;;;;;12.71;77.84;101301.98;107171;1271;62726;-87
2022/08/29 01:09:36;;;;;;;10.30;3.40;;;;;;;12.68;77.89;101300.92;107392;1271;61255;-87
2022/08/29 01:12:16;;;;;;;9.70;3.50;;;;;;;12.63;78.39;101302.45;107580;1273;76146;-87
2022/08/29 01:14:51;;;;;;;10.00;3.40;;;;;;;12.59;79.21;101301.41;107744;1271;72340;-87
2022/08/29 01:17:27;;;;;;;8.60;3.20;;;;;;;12.56;79.18;101308.60;107154;1271;72996;-87
2022/08/29 01:20:19;;;;;;;6.60;3.20;;;;;;;12.53;79.65;101308.05;107332;1274;62185;-87
2022/08/29 01:23:13;;;;;;;8.00;3.40;;;;;;;12.51;79.82;101305.70;107384;1271;61799;-87
2022/08/29 01:25:45;;;;;;;7.50;3.20;;;;;;;12.50;79.73;101313.79;107293;1271;75305;-87
2022/08/29 01:28:21;;;;;;;8.30;3.30;;;;;;;12.49;79.47;101316.84;107221;1271;70247;-86
2022/08/29 01:31:00;;;;;;;8.00;3.50;;;;;;;12.50;79.38;101318.05;107820;1271;72886;-87
2022/08/29 01:33:50;;;;;;;8.60;3.00;;;;;;;12.50;79.70;101314.45;108084;1272;62095;-87
2022/08/29 01:36:37;;;;;;;7.70;3.20;;;;;;;12.48;79.82;101313.49;107392;1271;60043;-87
2022/08/29 01:39:05;;;;;;;9.00;3.10;;;;;;;12.49;80.04;101314.39;107306;1271;76372;-87
2022/08/29 01:41:33;;;;;;;9.60;3.20;;;;;;;12.50;79.92;101309.52;107849;1274;72839;-87
2022/08/29 01:44:07;;;;;;;10.50;3.40;;;;;;;12.50;80.04;101308.07;107929;1271;72964;-87
2022/08/29 01:46:34;;;;;;;8.40;3.40;;;;;;;12.50;79.96;101304.18;107438;1273;62291;-87
2022/08/29 01:49:03;;;;;;;9.60;3.30;;;;;;;12.51;80.10;101298.92;107317;1274;61296;-87
2022/08/29 01:51:32;;;;;;;9.00;3.50;;;;;;;12.50;80.60;101304.16;107619;1273;74959;-87
2022/08/29 01:54:00;;;;;;;8.90;3.70;;;;;;;12.50;80.54;101300.45;107290;1273;71284;-87
2022/08/29 01:56:31;;;;;;;8.20;3.20;;;;;;;12.49;80.72;101303.90;107048;1264;73086;-87
2022/08/29 01:59:00;;;;;;;8.70;3.50;;;;;;;12.48;80.53;101309.34;106961;1273;62319;-87
2022/08/29 02:01:33;;;;;;;6.80;3.00;;;;;;;12.48;80.29;101309.20;106982;1274;61327;-87
2022/08/29 02:04:01;;;;;;;9.20;3.80;;;;;;;12.48;80.24;101310.77;107400;1273;75081;-87
2022/08/29 02:06:28;;;;;;;8.20;3.10;;;;;;;12.47;80.61;101315.48;107657;1273;70496;-87
2022/08/29 02:08:56;;;;;;;6.80;3.30;;;;;;;12.48;80.53;101319.89;107655;1274;74209;-88
2022/08/29 02:11:24;;;;;;;7.70;3.00;;;;;;;12.47;80.67;101325.06;107977;1274;61968;-87
2022/08/29 02:13:55;;;;;;;7.40;3.10;;;;;;;12.48;80.64;101321.15;107995;1273;59301;-88
2022/08/29 02:16:24;;;;;;;9.20;3.60;;;;;;;12.47;80.60;101318.35;107661;1273;74312;-87
2022/08/29 02:18:52;;;;;;;9.30;3.40;;;;;;;12.48;80.66;101322.38;106706;1273;71199;-87
2022/08/29 02:21:21;;;;;;;9.80;3.50;;;;;;;12.47;80.85;101322.20;107233;1273;73459;-87
2022/08/29 02:23:49;;;;;;;11.30;3.50;;;;;;;12.47;80.74;101319.38;106916;1273;61964;-87
2022/08/29 02:26:18;;;;;;;8.00;3.40;;;;;;;12.47;80.69;101318.91;107374;1274;61495;-87
2022/08/29 02:28:49;;;;;;;9.70;3.50;;;;;;;12.47;80.89;101319.05;107187;1275;76194;-87
2022/08/29 02:31:18;;;;;;;8.30;3.30;;;;;;;12.48;80.74;101315.92;106896;1273;71543;-88
2022/08/29 02:33:46;;;;;;;9.30;3.70;;;;;;;12.49;80.86;101317.42;107847;1274;73585;-87
2022/08/29 02:36:14;;;;;;;7.80;3.60;;;;;;;12.51;80.66;101325.16;106929;1275;61955;-87
2022/08/29 02:38:43;;;;;;;7.70;3.10;;;;;;;12.53;80.79;101318.90;107182;1273;61231;-87
2022/08/29 02:41:11;;;;;;;9.70;3.80;;;;;;;12.55;80.58;101319.55;106840;1273;75082;-87
2022/08/29 02:43:40;;;;;;;10.50;3.50;;;;;;;12.57;80.68;101314.36;107181;1273;71381;-87
2022/08/29 02:46:18;;;;;;;10.40;3.70;;;;;;;12.60;80.52;101314.34;107111;1274;73246;-87
2022/08/29 02:48:46;;;;;;;9.20;3.00;;;;;;;12.64;80.31;101314.12;107133;1276;63164;-87
2022/08/29 02:51:30;;;;;;;6.60;3.00;;;;;;;12.69;80.55;101313.94;107381;1273;60612;-87
2022/08/29 02:53:58;;;;;;;8.10;3.10;;;;;;;12.74;80.58;101309.27;107060;1274;76009;-87
2022/08/29 02:56:26;;;;;;;11.10;3.60;;;;;;;12.80;80.53;101312.89;107103;1274;72510;-87
2022/08/29 02:58:53;;;;;;;9.30;3.30;;;;;;;12.87;80.46;101314.95;107607;1274;73322;-87
2022/08/29 03:01:21;;;;;;;9.00;3.20;;;;;;;12.92;80.40;101319.28;107576;1274;61954;-87
2022/08/29 03:03:50;;;;;;;8.10;3.30;;;;;;;12.97;80.25;101320.31;107240;1274;61674;-87
2022/08/29 03:06:18;;;;;;;7.20;3.20;;;;;;;13.02;80.14;101316.15;107538;1274;74818;-87
2022/08/29 03:08:46;;;;;;;10.20;3.30;;;;;;;13.09;79.96;101311.34;106783;1273;71448;-87
2022/08/29 03:11:14;;;;;;;8.00;3.20;;;;;;;13.15;80.00;101311.58;107306;1273;74039;-88
2022/08/29 03:13:43;;;;;;;9.00;3.20;;;;;;;13.20;80.16;101315.08;107480;1274;62408;-88
2022/08/29 03:16:11;;;;;;;9.10;3.30;;;;;;;13.25;79.88;101312.85;107018;1274;61127;-88
2022/08/29 03:18:39;;;;;;;7.90;3.00;;;;;;;13.31;79.81;101311.87;107452;1274;74691;-87
2022/08/29 03:21:21;;;;;;;7.20;3.20;;;;;;;13.35;79.64;101304.41;107531;1273;72096;-88
2022/08/29 03:23:50;;;;;;;7.50;3.00;;;;;;;13.40;79.62;101307.01;107377;1274;72373;-88
2022/08/29 03:26:18;;;;;;;6.70;2.90;;;;;;;13.44;79.52;101303.61;107159;1274;63034;-87
2022/08/29 03:28:46;;;;;;;10.00;3.30;;;;;;;13.48;79.69;101313.27;107028;1274;59890;-87
2022/08/29 03:31:14;;;;;;;8.00;2.70;;;;;;;13.51;79.51;101307.92;107236;1274;75956;-87
2022/08/29 03:33:41;;;;;;;10.20;3.60;;;;;;;13.55;79.57;101304.62;107155;1273;70337;-87
2022/08/29 03:36:11;;;;;;;8.20;2.50;;;;;;;13.59;79.47;101303.81;107150;1274;73097;-87
2022/08/29 03:38:42;;;;;;;7.80;3.00;;;;;;;13.62;79.42;101307.02;107512;1274;63181;-87
2022/08/29 03:41:20;;;;;;;7.80;3.40;;;;;;;13.65;79.37;101308.27;107434;1274;60584;-88
2022/08/29 03:43:49;;;;;;;6.40;2.80;;;;;;;13.71;79.25;101308.81;107031;1274;74938;-89
2022/08/29 03:46:17;;;;;;;7.90;2.90;;;;;;;13.76;79.01;101315.35;107021;1274;70357;-87
2022/08/29 03:48:46;;;;;;;7.90;3.30;;;;;;;13.81;79.02;101314.20;107434;1274;74703;-87
2022/08/29 03:51:15;;;;;;;8.90;3.30;;;;;;;13.86;78.83;101313.45;107267;1274;63301;-88
2022/08/29 03:53:43;;;;;;;7.60;2.90;;;;;;;13.89;78.73;101313.08;107670;1274;61329;-87
2022/08/29 03:56:11;;;;;;;7.60;3.00;;;;;;;13.91;78.67;101309.62;107072;1274;76216;-87
2022/08/29 03:58:50;;;;;;;7.50;2.50;;;;;;;13.96;78.48;101315.48;107229;1274;71346;-87
2022/08/29 04:01:23;;;;;;;8.90;2.60;;;;;;;13.98;78.48;101315.23;107439;1274;73096;-88
2022/08/29 04:03:54;;;;;;;11.50;2.90;;;;;;;14.02;78.48;101318.11;107169;1274;63541;-87
2022/08/29 04:06:26;;;;;;;6.20;2.70;;;;;;;14.06;78.27;101317.60;107089;1274;61864;-87
2022/08/29 04:08:56;;;;;;;6.20;2.50;;;;;;;14.11;77.95;101318.46;107071;1274;76083;-88
2022/08/29 04:11:26;;;;;;;8.20;2.60;;;;;;;14.15;77.75;101319.17;107367;1274;70316;-87
2022/08/29 04:13:58;;;;;;;12.70;3.50;;;;;;;14.19;77.91;101320.14;107273;1273;73195;-88
2022/08/29 04:16:28;;;;;;;7.30;2.50;;;;;;;14.21;77.84;101322.35;107468;1274;62948;-88
2022/08/29 04:18:57;;;;;;;8.40;2.90;;;;;;;14.26;77.70;101324.35;107392;1274;61819;-87
2022/08/29 04:21:26;;;;;;;6.90;3.00;;;;;;;14.28;77.47;101322.66;107555;1273;76634;-87
2022/08/29 04:26:31;;;;;;;10.40;3.00;;;;;;;14.34;77.47;101325.52;107176;1273;73068;-88
2022/08/29 04:31:50;;;;;;;7.30;2.60;;;;;;;14.38;77.37;101319.84;107467;1274;60553;-89
2022/08/29 04:34:25;;;;;;;6.50;2.70;;;;;;;14.40;77.41;101321.09;107609;1274;75337;-88
2022/08/29 04:36:58;;;;;;;5.40;2.40;;;;;;;14.43;77.54;101318.09;107280;1274;72625;-89
2022/08/29 04:39:30;;;;;;;9.90;2.60;;;;;;;14.44;77.55;101324.09;107676;1274;71547;-88
2022/08/29 04:52:22;;;;;;;10.60;3.80;;;;;;;14.63;77.45;101321.89;107907;1264;73926;-91
2022/08/29 04:54:52;;;;;;;6.00;2.70;;;;;;;14.66;77.80;101318.33;106865;1274;61907;-86
2022/08/29 04:57:25;;;;;;;7.20;2.40;;;;;;;14.70;77.69;101322.11;107791;1273;60796;-89
2022/08/29 04:59:57;;;;;;;8.50;2.50;;;;;;;14.76;77.65;101321.07;107273;1274;75196;-86
2022/08/29 05:02:27;;;;;;;9.20;2.90;;;;;;;14.78;77.60;101316.63;107468;1274;71631;-88
2022/08/29 05:04:55;;;;;;;8.30;2.50;;;;;;;14.85;77.39;101319.17;107110;1274;72722;-87
2022/08/29 05:07:27;;;;;;;8.70;2.60;;;;;;;14.91;77.33;101327.66;107673;1274;62314;-87
2022/08/29 05:10:08;;;;;;;8.00;2.40;;;;;;;14.96;77.16;101332.08;107430;1274;60321;-86
2022/08/29 05:12:40;;;;;;;9.60;2.80;;;;;;;14.98;76.87;101339.21;107175;1274;75023;-86
2022/08/29 05:15:08;;;;;;;7.70;2.80;;;;;;;15.01;76.89;101339.52;106898;1273;71532;-87
2022/08/29 05:17:38;;;;;;;11.00;3.00;;;;;;;15.04;77.07;101338.73;106951;1274;72902;-86
2022/08/29 05:20:09;;;;;;;12.70;3.50;;;;;;;15.08;77.02;101336.61;107092;1274;63131;-86
2022/08/29 05:22:38;;;;;;;7.10;2.70;;;;;;;15.13;76.97;101338.67;107628;1273;63022;-86
2022/08/29 05:25:09;;;;;;;11.40;2.70;;;;;;;15.18;76.91;101341.90;107206;1274;74939;-86
2022/08/29 05:27:45;;;;;;;8.50;2.80;;;;;;;15.26;76.84;101342.32;107581;1273;72116;-88
2022/08/29 05:30:18;;;;;;;8.50;2.60;;;;;;;15.28;76.60;101345.84;107277;1274;73151;-87
2022/08/29 05:33:01;;;;;;;8.30;2.60;;;;;;;15.26;76.74;101342.55;107221;1274;63059;-86
2022/08/29 05:35:30;;;;;;;6.60;2.60;;;;;;;15.26;76.68;101342.65;107103;1274;61241;-86
2022/08/29 05:37:58;;;;;;;6.10;2.70;;;;;;;15.31;76.55;101341.45;107170;1274;74969;-86
2022/08/29 05:40:25;;;;;;;9.30;2.50;;;;;;;15.33;76.55;101343.40;107615;1274;71516;-87
2022/08/29 05:42:55;;;;;;;7.50;2.60;;;;;;;15.41;76.47;101347.61;107386;1274;72738;-88
2022/08/29 05:45:25;;;;;;;6.20;2.90;;;;;;;15.49;76.36;101342.70;107634;1273;61749;-86
2022/08/29 05:47:52;;;;;;;7.40;2.50;;;;;;;15.55;76.12;101349.50;107759;1274;61266;-84
2022/08/29 05:50:19;;;;;;;11.10;3.10;;;;;;;15.58;76.02;101354.09;107681;1274;75024;-86
2022/08/29 05:52:46;;;;;;;7.40;2.70;;;;;;;15.60;75.94;101353.66;107074;1274;71420;-85
2022/08/29 05:55:17;;;;;;;9.10;2.70;;;;;;;15.62;75.80;101355.73;106929;1274;73150;-87
2022/08/29 05:57:44;;;;;;;10.70;2.60;;;;;;;15.64;75.90;101353.45;107140;1274;63799;-85
2022/08/29 06:00:18;;;;;;;7.60;2.50;;;;;;;15.65;76.16;101353.63;107160;1274;62346;-87
2022/08/29 06:02:47;;;;;;;10.20;3.10;;;;;;;15.67;76.09;101356.27;106583;1274;75980;-87
2022/08/29 06:07:54;;;;;;;11.40;2.90;;;;;;;15.77;76.14;101353.97;105974;1276;73008;-84
2022/08/29 06:10:21;;;;;;;11.20;3.40;;;;;;;15.82;76.02;101352.61;106575;1276;62382;-85
2022/08/29 06:12:48;;;;;;;11.20;2.60;;;;;;;15.89;75.99;101352.29;106298;1274;61400;-84
2022/08/29 06:15:15;;;;;;;9.80;2.80;;;;;;;16.01;75.87;101354.02;106850;1274;75385;-84
2022/08/29 06:17:41;;;;;;;10.00;2.80;;;;;;;16.14;75.67;101358.24;106484;1276;71442;-87
2022/08/29 06:20:09;;;;;;;9.90;2.70;;;;;;;16.18;75.00;101362.33;106732;1276;74038;-84
2022/08/29 06:22:37;;;;;;;9.30;2.70;;;;;;;16.22;74.98;101360.96;107931;1264;63158;-84
2022/08/29 06:25:07;;;;;;;8.50;3.10;;;;;;;16.26;75.02;101361.82;108437;1273;62902;-84
2022/08/29 06:27:55;;;;;;;8.90;3.00;;;;;;;16.27;74.94;101362.64;108448;1274;76594;-85
2022/08/29 06:30:22;;;;;;;9.30;2.90;;;;;;;16.27;75.07;101363.76;108466;1274;72326;-85
2022/08/29 06:32:49;;;;;;;9.40;2.70;;;;;;;16.28;75.29;101364.30;108353;1273;71363;-84
2022/08/29 06:35:18;;;;;;;7.70;2.80;;;;;;;16.29;75.41;101364.80;108480;1273;62123;-84
2022/08/29 06:37:45;;;;;;;11.30;2.80;;;;;;;16.29;75.50;101369.83;108439;1273;60735;-85
2022/08/29 06:40:12;;;;;;;9.80;3.10;;;;;;;16.30;75.72;101369.02;108319;1274;74250;-85
2022/08/29 06:42:39;;;;;;;9.90;2.90;;;;;;;16.34;75.70;101370.23;107131;1274;1690228;-84
2022/08/29 06:45:07;;;;;;;10.90;3.30;;;;;;;16.29;75.96;101370.65;108419;1273;59168;-84
2022/08/29 06:47:34;;;;;;;11.00;3.00;;;;;;;16.27;76.19;101374.80;108424;1274;62860;-89
2022/08/29 06:50:01;;;;;;;10.00;2.90;;;;;;;16.27;76.12;101377.84;108479;1273;60593;-84
2022/08/29 06:52:28;;;;;;;10.10;3.00;;;;;;;16.26;76.35;101381.13;108506;1272;74690;-84
2022/08/29 06:54:55;;;;;;;14.60;3.70;;;;;;;16.29;76.31;101382.76;108483;1273;71125;-83
2022/08/29 06:57:22;;;;;;;12.10;3.30;;;;;;;16.36;76.25;101382.64;108464;1273;72941;-83
2022/08/29 06:59:49;;;;;;;10.50;3.10;;;;;;;16.45;76.04;101381.55;108443;1273;62128;-83
2022/08/29 07:02:16;;;;;;;9.40;2.90;;;;;;;16.55;75.71;101382.52;108466;1273;62180;-84
2022/08/29 07:04:43;;;;;;;10.80;3.10;;;;;;;16.58;75.47;101382.61;108473;1273;76169;-84
2022/08/29 07:07:09;;;;;;;8.40;2.80;;;;;;;16.61;75.51;101387.73;108369;1274;72339;-85
2022/08/29 07:09:37;;;;;;;11.90;3.50;;;;;;;16.64;75.53;101384.57;108465;1272;72912;-84
2022/08/29 07:12:04;;;;;;;12.10;3.10;;;;;;;16.73;75.65;101384.83;108420;1274;62236;-84
2022/08/29 07:14:31;;;;;;;12.70;2.90;;;;;;;16.81;75.22;101383.02;108529;1273;60395;-84
2022/08/29 07:16:59;;;;;;;9.30;3.70;;;;;;;16.83;75.22;101386.88;108540;1274;76634;-85
2022/08/29 07:19:26;;;;;;;14.50;3.80;;;;;;;16.82;75.53;101386.17;108424;1274;72024;-85
2022/08/29 07:21:53;;;;;;;10.50;3.70;;;;;;;16.80;75.72;101389.68;108491;1274;72984;-84
2022/08/29 07:24:24;;;;;;;12.70;3.80;;;;;;;16.76;75.75;101393.91;108376;1274;63151;-84
2022/08/29 07:26:51;;;;;;;15.00;4.50;;;;;;;16.76;75.79;101393.50;108549;1272;60314;-84
2022/08/29 07:31:52;;;;;;;12.50;3.50;;;;;;;16.82;76.05;101393.44;108362;1273;72567;-86
2022/08/29 07:34:19;;;;;;;12.30;3.30;;;;;;;16.86;76.16;101393.70;108262;1274;72034;-83
2022/08/29 07:36:49;;;;;;;11.60;3.70;;;;;;;16.85;76.55;101398.11;108316;1274;64279;-84
2022/08/29 07:39:17;;;;;;;12.50;3.90;;;;;;;16.81;77.73;101406.52;108328;1274;61409;-85
2022/08/29 07:41:44;;;;;;;12.90;4.60;;;;;;;16.71;79.30;101405.30;108298;1274;74919;-86
2022/08/29 07:44:12;;;;;;;15.20;4.40;;;;;;;16.62;80.05;101401.66;108348;1274;71588;-85
2022/08/29 07:46:40;;;;;;;12.90;4.70;;;;;;;16.56;81.26;101398.09;108281;1276;72018;-85
2022/08/29 07:49:07;;;;;;;12.40;4.00;;;;;;;16.45;82.39;101399.71;108248;1276;63618;-85
2022/08/29 07:53:59;;;;;;;12.60;4.30;;;;;;;16.35;83.01;101395.23;108468;1264;60441;-85
2022/08/29 07:56:33;;;;;;;9.50;4.00;;;;;;;16.33;83.39;101397.12;108399;1273;73828;-85
2022/08/29 07:59:04;;;;;;;10.20;4.20;;;;;;;16.34;84.18;101398.23;108484;1273;73208;-85
2022/08/29 08:01:31;;;;;;;12.10;4.60;;;;;;;16.35;83.76;101400.55;108486;1273;62272;-86
2022/08/29 08:03:59;;;;;;;12.10;4.40;;;;;;;16.34;84.02;101400.30;108458;1274;60260;-85
2022/08/29 08:06:27;;;;;;;12.00;4.90;;;;;;;16.37;84.37;101404.64;108476;1273;73966;-85
2022/08/29 08:08:56;;;;;;;12.70;4.70;;;;;;;16.43;84.64;101406.58;108448;1273;71346;-84
2022/08/29 08:11:25;;;;;;;10.90;4.60;;;;;;;16.48;84.87;101412.66;108501;1272;74629;-84
2022/08/29 08:13:54;;;;;;;13.00;5.20;;;;;;;16.57;84.40;101414.58;108433;1274;62534;-86
2022/08/29 08:16:24;;;;;;;10.50;4.80;;;;;;;16.59;83.66;101420.33;108485;1273;61345;-85
2022/08/29 08:18:51;;;;;;;12.40;4.80;;;;;;;16.58;83.47;101425.09;108363;1273;75678;-85
2022/08/29 08:21:18;;;;;;;12.30;4.40;;;;;;;16.64;83.54;101423.85;108496;1273;69953;-86
2022/08/29 08:23:46;;;;;;;9.90;4.30;;;;;;;16.69;83.30;101425.30;108506;1273;72796;-86
2022/08/29 08:26:16;;;;;;;11.50;4.40;;;;;;;16.75;83.05;101431.04;108510;1273;62552;-86
2022/08/29 08:28:47;;;;;;;13.60;4.80;;;;;;;16.75;82.82;101424.61;108389;1273;62169;-85
2022/08/29 08:31:16;;;;;;;11.90;4.80;;;;;;;16.76;83.09;101422.64;108458;1274;74907;-85
2022/08/29 08:33:44;;;;;;;11.60;4.50;;;;;;;16.80;82.63;101424.65;108503;1273;70525;-85
2022/08/29 08:36:22;;;;;;;12.40;5.00;;;;;;;16.85;82.69;101428.12;108520;1272;72750;-85
2022/08/29 08:38:51;;;;;;;12.90;5.50;;;;;;;16.90;82.58;101425.09;108445;1272;62870;-86
2022/08/29 08:41:27;;;;;;;12.60;5.20;;;;;;;16.99;82.28;101427.23;108537;1273;60137;-86
2022/08/29 08:44:00;;;;;;;13.10;6.10;;;;;;;17.10;81.98;101426.48;108498;1273;76517;-86
2022/08/29 08:46:35;;;;;;;13.30;6.30;;;;;;;17.21;81.68;101417.75;108500;1274;71370;-86
2022/08/29 08:49:07;;;;;;;14.10;6.70;;;;;;;17.27;81.16;101417.54;108430;1272;72897;-86
2022/08/29 08:51:36;;;;;;;18.00;6.70;;;;;;;17.41;80.50;101409.48;108413;1273;62431;-86
2022/08/29 08:54:12;;;;;;;9.20;5.00;;;;;;;17.59;79.86;101417.44;108448;1273;61316;-86
2022/08/29 08:56:50;;;;;;;18.00;6.40;;;;;;;17.75;79.26;101413.42;108431;1273;74958;-86
2022/08/29 09:01:55;;;;;;;17.60;6.40;;;;;;;18.11;77.61;101419.41;108410;1264;60200;-86
2022/08/29 09:04:36;;;;;;;11.70;5.50;;;;;;;18.35;76.90;101424.89;108490;1273;61935;-86
2022/08/29 09:07:16;;;;;;;11.90;5.50;;;;;;;18.55;76.20;101426.48;108374;1273;60416;-87
2022/08/29 09:09:49;;;;;;;12.70;6.00;;;;;;;18.70;74.92;101432.84;108446;1273;75130;-86
2022/08/29 09:12:25;;;;;;;11.30;6.10;;;;;;;18.87;74.82;101421.31;108364;1274;71693;-85
2022/08/29 09:15:00;;;;;;;14.40;6.10;;;;;;;19.07;74.02;101417.60;108476;1273;72629;-86
2022/08/29 09:17:35;;;;;;;11.60;5.70;;;;;;;19.21;73.09;101413.44;108449;1273;62225;-87
2022/08/29 09:20:07;;;;;;;12.60;6.00;;;;;;;19.31;72.41;101415.45;108311;1274;61454;-86
2022/08/29 09:22:39;;;;;;;13.30;6.10;;;;;;;19.46;72.25;101415.05;108455;1274;75018;-86
2022/08/29 09:25:09;;;;;;;11.40;5.70;;;;;;;19.65;72.20;101413.27;108305;1274;72141;-86
2022/08/29 09:27:36;;;;;;;11.80;5.80;;;;;;;19.77;71.12;101419.63;108406;1274;72633;-87
2022/08/29 09:30:23;;;;;;;9.90;5.60;;;;;;;19.79;70.27;101419.24;108284;1274;62716;-86
2022/08/29 09:33:11;;;;;;;13.90;5.90;;;;;;;19.80;70.27;101416.13;108402;1273;60810;-86
2022/08/29 09:35:40;;;;;;;11.40;5.50;;;;;;;19.90;70.50;101415.17;108508;1273;77855;-86
2022/08/29 09:38:16;;;;;;;14.20;5.60;;;;;;;19.92;69.69;101415.29;108533;1273;71361;-86
2022/08/29 09:40:57;;;;;;;10.90;6.10;;;;;;;20.06;70.13;101421.30;108472;1273;72699;-86
2022/08/29 09:43:43;;;;;;;11.70;5.80;;;;;;;20.16;69.33;101419.98;108448;1273;63427;-87
2022/08/29 09:46:21;;;;;;;11.90;5.20;;;;;;;20.28;68.64;101420.94;108408;1274;60611;-86
2022/08/29 09:48:52;;;;;;;10.90;5.20;;;;;;;20.39;68.96;101419.34;108505;1273;76143;-86
2022/08/29 09:51:23;;;;;;;13.50;6.40;;;;;;;20.54;68.35;101421.37;108421;1273;72430;-86
2022/08/29 09:54:10;;;;;;;10.00;5.60;;;;;;;20.69;67.63;101415.33;108553;1273;72535;-86
2022/08/29 09:56:47;;;;;;;10.70;5.60;;;;;;;20.78;67.33;101413.73;108467;1273;62411;-86
2022/08/29 09:59:32;;;;;;;13.30;6.30;;;;;;;20.79;67.41;101413.18;108445;1273;59203;-85
2022/08/29 10:02:21;;;;;;;13.20;6.50;;;;;;;20.95;67.47;101414.16;108386;1274;73548;-85
2022/08/29 10:04:55;;;;;;;11.60;6.30;;;;;;;21.10;66.71;101416.76;108422;1274;70651;-85
2022/08/29 10:07:28;;;;;;;9.20;5.60;;;;;;;21.30;66.22;101418.38;108532;1274;72817;-85
2022/08/29 10:10:05;;;;;;;10.90;6.00;;;;;;;21.53;65.90;101417.34;108562;1274;62222;-84
2022/08/29 10:12:53;;;;;;;11.00;5.90;;;;;;;21.81;64.87;101416.48;108575;1274;60600;-85
2022/08/29 10:15:38;;;;;;;10.00;5.90;;;;;;;22.06;64.02;101413.20;108409;1274;76826;-84
2022/08/29 10:18:41;;;;;;;9.80;5.20;;;;;;;22.16;63.01;101409.73;108483;1274;71413;-84
2022/08/29 10:21:35;;;;;;;10.70;5.10;;;;;;;22.21;62.95;101410.52;108529;1274;74172;-84
2022/08/29 10:24:20;;;;;;;10.60;5.60;;;;;;;22.37;62.87;101411.23;108329;1273;63229;-84
2022/08/29 10:27:21;;;;;;;9.20;4.80;;;;;;;22.37;61.57;101410.59;108445;1274;60444;-84
2022/08/29 10:30:11;;;;;;;9.90;4.90;;;;;;;22.41;61.69;101412.17;108437;1274;75487;-85
2022/08/29 10:32:59;;;;;;;7.10;4.30;;;;;;;22.34;61.40;101412.89;108462;1273;71992;-85
2022/08/29 10:35:54;;;;;;;9.70;4.90;;;;;;;22.40;61.74;101412.54;108448;1274;73191;-84
2022/08/29 10:38:51;;;;;;;9.90;4.70;;;;;;;22.64;61.22;101406.41;108082;1274;63542;-84
2022/08/29 10:41:48;;;;;;;9.40;4.90;;;;;;;22.87;59.82;101399.51;108412;1274;63614;-84
2022/08/29 10:44:49;;;;;;;8.70;4.40;;;;;;;23.20;59.37;101397.64;108444;1274;75741;-84
2022/08/29 10:47:37;;;;;;;8.10;4.70;;;;;;;23.53;57.89;101398.84;108345;1274;71419;-84
2022/08/29 10:50:30;;;;;;;10.00;4.90;;;;;;;23.70;56.84;101394.04;108512;1264;74256;-84
2022/08/29 10:53:20;;;;;;;9.40;5.10;;;;;;;23.71;56.46;101396.77;108481;1274;60371;-84
2022/08/29 10:55:58;;;;;;;12.90;5.20;;;;;;;23.65;56.52;101399.95;108481;1271;60299;-84
2022/08/29 10:59:17;;;;;;;9.10;4.90;;;;;;;23.75;56.75;101393.42;108571;1271;74891;-84
2022/08/29 11:02:37;;;;;;;8.30;4.20;;;;;;;24.16;55.37;101389.40;107989;1279;72308;-84
2022/08/29 11:05:14;;;;;;;7.70;4.10;;;;;;;24.36;54.67;101393.21;108270;1274;71723;-84
2022/08/29 11:07:49;;;;;;;8.10;4.30;;;;;;;24.28;54.33;101393.21;108590;1270;60492;-84
2022/08/29 11:10:22;;;;;;;8.50;4.20;;;;;;;24.18;54.21;101392.74;108472;1271;62016;-83
2022/08/29 11:12:48;;;;;;;9.80;4.30;;;;;;;24.08;53.95;101396.23;108496;1271;75090;-84
2022/08/29 11:15:37;;;;;;;8.60;4.50;;;;;;;24.00;53.63;101394.27;108629;1270;71336;-85
2022/08/29 11:18:21;;;;;;;10.90;4.30;;;;;;;24.04;53.76;101396.94;108619;1270;74621;-84
2022/08/29 11:20:56;;;;;;;7.70;3.90;;;;;;;23.94;54.05;101395.54;108402;1271;59801;-83
2022/08/29 11:23:37;;;;;;;7.60;3.50;;;;;;;23.97;53.90;101399.59;108606;1271;60924;-85
2022/08/29 11:26:36;;;;;;;10.70;4.50;;;;;;;23.94;54.12;101402.63;108332;1270;76420;-84
2022/08/29 11:29:12;;;;;;;9.20;4.20;;;;;;;23.97;53.77;101403.06;108288;1271;72160;-84
2022/08/29 11:31:50;;;;;;;7.50;4.00;;;;;;;24.16;53.84;101401.11;108569;1271;73950;-84
2022/08/29 11:34:45;;;;;;;8.00;3.70;;;;;;;24.36;52.75;101404.60;108571;1269;62011;-84
2022/08/29 11:37:32;;;;;;;9.70;3.90;;;;;;;24.60;52.29;101401.37;108571;1271;60375;-83
2022/08/29 11:40:24;;;;;;;7.80;3.70;;;;;;;24.82;51.39;101403.01;108564;1271;77012;-83
2022/08/29 11:43:16;;;;;;;9.40;4.10;;;;;;;25.18;50.64;101404.51;108625;1271;71516;-83
2022/08/29 11:45:52;;;;;;;11.00;4.00;;;;;;;25.45;50.17;101398.48;108562;1270;73180;-84
2022/08/29 11:48:32;;;;;;;10.50;4.10;;;;;;;25.44;49.49;101397.84;108607;1271;60624;-84
2022/08/29 11:51:28;;;;;;;9.80;3.90;;;;;;;25.55;49.19;101407.11;108474;1271;60421;-83
2022/08/29 11:54:15;;;;;;;10.20;4.30;;;;;;;25.68;48.60;101406.95;108511;1273;75038;-84
2022/08/29 11:56:42;;;;;;;8.90;4.00;;;;;;;25.70;47.85;101407.95;108527;1271;71275;-84
2022/08/29 11:59:11;;;;;;;10.10;4.20;;;;;;;25.86;47.96;101404.17;108543;1271;72652;-84
2022/08/29 12:01:40;;;;;;;7.70;3.80;;;;;;;25.97;47.46;101404.83;108489;1271;61593;-84
2022/08/29 12:04:08;;;;;;;10.00;4.20;;;;;;;26.14;46.70;101404.44;108585;1271;60816;-84
2022/08/29 12:06:51;;;;;;;7.80;3.90;;;;;;;26.29;46.58;101401.21;108526;1271;75138;-84
2022/08/29 12:09:55;;;;;;;10.50;3.90;;;;;;;26.49;46.12;101396.70;108555;1271;70730;-85
2022/08/29 12:12:46;;;;;;;8.40;3.60;;;;;;;26.32;45.75;101399.45;108607;1270;72945;-84